sensor_id;sensor_type;location;lat;lon;timestamp;temperature;humidity
75621;DHT22;64574;48.506;-2.750;2023-06-10T00:02:08;19.00;88.80
75621;DHT22;64574;48.506;-2.750;2023-06-10T00:04:34;19.00;88.70
75621;DHT22;64574;48.506;-2.750;2023-06-10T00:07:02;19.00;88.80
75621;DHT22;64574;48.506;-2.750;2023-06-10T00:09:29;19.00;88.70
75621;DHT22;64574;48.506;-2.750;2023-06-10T00:11:55;19.00;88.70
75621;DHT22;64574;48.506;-2.750;2023-06-10T00:14:20;18.90;88.60
75621;DHT22;64574;48.506;-2.750;2023-06-10T00:16:46;18.90;88.50
75621;DHT22;64574;48.506;-2.750;2023-06-10T00:19:12;18.90;88.50
75621;DHT22;64574;48.506;-2.750;2023-06-10T00:21:39;18.90;88.30
75621;DHT22;64574;48.506;-2.750;2023-06-10T00:24:10;18.90;88.30
75621;DHT22;64574;48.506;-2.750;2023-06-10T00:26:38;18.80;88.20
75621;DHT22;64574;48.506;-2.750;2023-06-10T00:29:04;18.80;88.30
75621;DHT22;64574;48.506;-2.750;2023-06-10T00:31:29;18.80;88.20
75621;DHT22;64574;48.506;-2.750;2023-06-10T00:33:55;18.80;88.20
75621;DHT22;64574;48.506;-2.750;2023-06-10T00:36:21;18.80;88.10
75621;DHT22;64574;48.506;-2.750;2023-06-10T00:38:47;18.70;88.10
75621;DHT22;64574;48.506;-2.750;2023-06-10T00:41:13;18.70;88.00
75621;DHT22;64574;48.506;-2.750;2023-06-10T00:43:39;18.80;88.00
75621;DHT22;64574;48.506;-2.750;2023-06-10T00:46:04;18.70;87.90
75621;DHT22;64574;48.506;-2.750;2023-06-10T00:48:30;18.70;87.80
75621;DHT22;64574;48.506;-2.750;2023-06-10T00:50:56;18.70;87.80
75621;DHT22;64574;48.506;-2.750;2023-06-10T00:53:23;18.70;87.70
75621;DHT22;64574;48.506;-2.750;2023-06-10T00:55:49;18.60;87.60
75621;DHT22;64574;48.506;-2.750;2023-06-10T00:58:15;18.70;87.70
75621;DHT22;64574;48.506;-2.750;2023-06-10T01:00:41;18.70;87.60
75621;DHT22;64574;48.506;-2.750;2023-06-10T01:03:06;18.70;87.60
75621;DHT22;64574;48.506;-2.750;2023-06-10T01:05:34;18.60;87.50
75621;DHT22;64574;48.506;-2.750;2023-06-10T01:08:16;18.70;87.60
75621;DHT22;64574;48.506;-2.750;2023-06-10T01:10:56;18.60;87.60
75621;DHT22;64574;48.506;-2.750;2023-06-10T01:13:24;18.70;87.60
75621;DHT22;64574;48.506;-2.750;2023-06-10T01:15:54;18.70;87.60
75621;DHT22;64574;48.506;-2.750;2023-06-10T01:18:21;18.70;87.70
75621;DHT22;64574;48.506;-2.750;2023-06-10T01:20:47;18.70;87.60
75621;DHT22;64574;48.506;-2.750;2023-06-10T01:23:14;18.70;87.80
75621;DHT22;64574;48.506;-2.750;2023-06-10T01:25:43;18.70;87.90
75621;DHT22;64574;48.506;-2.750;2023-06-10T01:28:27;18.70;87.90
75621;DHT22;64574;48.506;-2.750;2023-06-10T01:33:49;18.70;87.80
75621;DHT22;64574;48.506;-2.750;2023-06-10T01:36:17;18.70;87.70
75621;DHT22;64574;48.506;-2.750;2023-06-10T01:38:45;18.60;87.80
75621;DHT22;64574;48.506;-2.750;2023-06-10T01:41:16;18.60;88.00
75621;DHT22;64574;48.506;-2.750;2023-06-10T01:43:44;18.60;88.00
75621;DHT22;64574;48.506;-2.750;2023-06-10T01:46:10;18.60;88.20
75621;DHT22;64574;48.506;-2.750;2023-06-10T01:48:37;18.60;88.20
75621;DHT22;64574;48.506;-2.750;2023-06-10T01:51:03;18.60;88.20
75621;DHT22;64574;48.506;-2.750;2023-06-10T01:53:29;18.70;88.20
75621;DHT22;64574;48.506;-2.750;2023-06-10T01:55:54;18.70;88.10
75621;DHT22;64574;48.506;-2.750;2023-06-10T01:58:20;18.60;88.10
75621;DHT22;64574;48.506;-2.750;2023-06-10T02:00:45;18.60;88.30
75621;DHT22;64574;48.506;-2.750;2023-06-10T02:03:11;18.60;88.40
75621;DHT22;64574;48.506;-2.750;2023-06-10T02:05:37;18.60;88.50
75621;DHT22;64574;48.506;-2.750;2023-06-10T02:08:03;18.60;88.60
75621;DHT22;64574;48.506;-2.750;2023-06-10T02:10:29;18.50;88.70
75621;DHT22;64574;48.506;-2.750;2023-06-10T02:12:54;18.50;88.90
75621;DHT22;64574;48.506;-2.750;2023-06-10T02:15:20;18.50;89.00
75621;DHT22;64574;48.506;-2.750;2023-06-10T02:17:46;18.50;89.00
75621;DHT22;64574;48.506;-2.750;2023-06-10T02:20:11;18.60;89.00
75621;DHT22;64574;48.506;-2.750;2023-06-10T02:22:38;18.50;89.00
75621;DHT22;64574;48.506;-2.750;2023-06-10T02:25:05;18.50;89.10
75621;DHT22;64574;48.506;-2.750;2023-06-10T02:27:31;18.50;89.10
75621;DHT22;64574;48.506;-2.750;2023-06-10T02:29:57;18.50;89.20
75621;DHT22;64574;48.506;-2.750;2023-06-10T02:32:22;18.60;89.20
75621;DHT22;64574;48.506;-2.750;2023-06-10T02:34:48;18.60;89.20
75621;DHT22;64574;48.506;-2.750;2023-06-10T02:37:16;18.60;89.20
75621;DHT22;64574;48.506;-2.750;2023-06-10T02:39:42;18.60;89.10
75621;DHT22;64574;48.506;-2.750;2023-06-10T02:42:08;18.60;89.00
75621;DHT22;64574;48.506;-2.750;2023-06-10T02:44:34;18.60;89.00
75621;DHT22;64574;48.506;-2.750;2023-06-10T02:47:00;18.60;88.90
75621;DHT22;64574;48.506;-2.750;2023-06-10T02:49:25;18.60;88.90
75621;DHT22;64574;48.506;-2.750;2023-06-10T02:51:53;18.60;88.90
75621;DHT22;64574;48.506;-2.750;2023-06-10T02:54:20;18.50;88.90
75621;DHT22;64574;48.506;-2.750;2023-06-10T02:56:45;18.50;89.00
75621;DHT22;64574;48.506;-2.750;2023-06-10T02:59:13;18.50;88.90
75621;DHT22;64574;48.506;-2.750;2023-06-10T03:01:39;18.50;88.90
75621;DHT22;64574;48.506;-2.750;2023-06-10T03:04:05;18.60;88.90
75621;DHT22;64574;48.506;-2.750;2023-06-10T03:06:31;18.50;88.70
75621;DHT22;64574;48.506;-2.750;2023-06-10T03:08:59;18.50;88.60
75621;DHT22;64574;48.506;-2.750;2023-06-10T03:11:25;18.50;88.60
75621;DHT22;64574;48.506;-2.750;2023-06-10T03:13:51;18.50;88.50
75621;DHT22;64574;48.506;-2.750;2023-06-10T03:16:17;18.50;88.50
75621;DHT22;64574;48.506;-2.750;2023-06-10T03:18:43;18.50;88.40
75621;DHT22;64574;48.506;-2.750;2023-06-10T03:21:09;18.50;88.30
75621;DHT22;64574;48.506;-2.750;2023-06-10T03:23:35;18.50;88.10
75621;DHT22;64574;48.506;-2.750;2023-06-10T03:26:01;18.40;88.10
75621;DHT22;64574;48.506;-2.750;2023-06-10T03:28:27;18.50;88.10
75621;DHT22;64574;48.506;-2.750;2023-06-10T03:30:52;18.50;88.00
75621;DHT22;64574;48.506;-2.750;2023-06-10T03:33:18;18.50;88.00
75621;DHT22;64574;48.506;-2.750;2023-06-10T03:35:43;18.50;87.80
75621;DHT22;64574;48.506;-2.750;2023-06-10T03:38:09;18.40;87.80
75621;DHT22;64574;48.506;-2.750;2023-06-10T03:40:35;18.40;87.70
75621;DHT22;64574;48.506;-2.750;2023-06-10T03:43:00;18.40;87.50
75621;DHT22;64574;48.506;-2.750;2023-06-10T03:45:26;18.40;87.60
75621;DHT22;64574;48.506;-2.750;2023-06-10T03:47:53;18.40;87.50
75621;DHT22;64574;48.506;-2.750;2023-06-10T03:50:19;18.40;87.40
75621;DHT22;64574;48.506;-2.750;2023-06-10T03:52:44;18.40;87.20
75621;DHT22;64574;48.506;-2.750;2023-06-10T03:55:11;18.40;87.30
75621;DHT22;64574;48.506;-2.750;2023-06-10T03:57:39;18.40;87.20
75621;DHT22;64574;48.506;-2.750;2023-06-10T04:00:07;18.40;87.30
75621;DHT22;64574;48.506;-2.750;2023-06-10T04:02:36;18.40;87.30
75621;DHT22;64574;48.506;-2.750;2023-06-10T04:05:02;18.40;87.20
75621;DHT22;64574;48.506;-2.750;2023-06-10T04:07:28;18.30;87.40
75621;DHT22;64574;48.506;-2.750;2023-06-10T04:09:54;18.30;87.50
75621;DHT22;64574;48.506;-2.750;2023-06-10T04:12:19;18.30;87.40
75621;DHT22;64574;48.506;-2.750;2023-06-10T04:14:45;18.30;87.40
75621;DHT22;64574;48.506;-2.750;2023-06-10T04:17:10;18.30;87.50
75621;DHT22;64574;48.506;-2.750;2023-06-10T04:19:36;18.30;87.50
75621;DHT22;64574;48.506;-2.750;2023-06-10T04:22:02;18.30;87.50
75621;DHT22;64574;48.506;-2.750;2023-06-10T04:24:29;18.30;87.40
75621;DHT22;64574;48.506;-2.750;2023-06-10T04:26:54;18.30;87.30
75621;DHT22;64574;48.506;-2.750;2023-06-10T04:29:20;18.30;87.50
75621;DHT22;64574;48.506;-2.750;2023-06-10T04:31:46;18.30;87.50
75621;DHT22;64574;48.506;-2.750;2023-06-10T04:34:12;18.30;87.40
75621;DHT22;64574;48.506;-2.750;2023-06-10T04:36:38;18.20;87.50
75621;DHT22;64574;48.506;-2.750;2023-06-10T04:39:03;18.20;87.50
75621;DHT22;64574;48.506;-2.750;2023-06-10T04:41:31;18.20;87.60
75621;DHT22;64574;48.506;-2.750;2023-06-10T04:43:56;18.20;87.70
75621;DHT22;64574;48.506;-2.750;2023-06-10T04:46:23;18.10;87.70
75621;DHT22;64574;48.506;-2.750;2023-06-10T04:48:49;18.10;87.70
75621;DHT22;64574;48.506;-2.750;2023-06-10T04:51:15;18.10;87.80
75621;DHT22;64574;48.506;-2.750;2023-06-10T04:53:42;18.10;87.70
75621;DHT22;64574;48.506;-2.750;2023-06-10T04:56:08;18.10;87.70
75621;DHT22;64574;48.506;-2.750;2023-06-10T04:58:33;18.10;87.50
75621;DHT22;64574;48.506;-2.750;2023-06-10T05:00:59;18.10;87.30
75621;DHT22;64574;48.506;-2.750;2023-06-10T05:03:26;18.10;87.20
75621;DHT22;64574;48.506;-2.750;2023-06-10T05:05:51;18.10;87.20
75621;DHT22;64574;48.506;-2.750;2023-06-10T05:08:18;18.00;87.10
75621;DHT22;64574;48.506;-2.750;2023-06-10T05:10:43;18.00;87.20
75621;DHT22;64574;48.506;-2.750;2023-06-10T05:13:09;18.00;87.30
75621;DHT22;64574;48.506;-2.750;2023-06-10T05:15:35;17.90;87.30
75621;DHT22;64574;48.506;-2.750;2023-06-10T05:18:00;18.00;87.20
75621;DHT22;64574;48.506;-2.750;2023-06-10T05:20:28;17.90;87.20
75621;DHT22;64574;48.506;-2.750;2023-06-10T05:22:54;18.00;87.20
75621;DHT22;64574;48.506;-2.750;2023-06-10T05:25:20;17.90;87.20
75621;DHT22;64574;48.506;-2.750;2023-06-10T05:27:46;17.80;87.20
75621;DHT22;64574;48.506;-2.750;2023-06-10T05:30:12;17.90;87.00
75621;DHT22;64574;48.506;-2.750;2023-06-10T05:32:37;17.90;86.30
75621;DHT22;64574;48.506;-2.750;2023-06-10T05:35:03;17.80;86.50
75621;DHT22;64574;48.506;-2.750;2023-06-10T05:37:30;17.90;86.40
75621;DHT22;64574;48.506;-2.750;2023-06-10T05:39:55;18.00;86.10
75621;DHT22;64574;48.506;-2.750;2023-06-10T05:42:21;18.00;86.10
75621;DHT22;64574;48.506;-2.750;2023-06-10T05:44:47;18.00;86.20
75621;DHT22;64574;48.506;-2.750;2023-06-10T05:47:12;18.10;85.80
75621;DHT22;64574;48.506;-2.750;2023-06-10T05:49:38;18.10;85.50
75621;DHT22;64574;48.506;-2.750;2023-06-10T05:52:04;18.10;85.40
75621;DHT22;64574;48.506;-2.750;2023-06-10T05:54:29;18.10;85.30
75621;DHT22;64574;48.506;-2.750;2023-06-10T05:56:55;18.20;85.40
75621;DHT22;64574;48.506;-2.750;2023-06-10T05:59:21;18.10;85.30
75621;DHT22;64574;48.506;-2.750;2023-06-10T06:01:48;18.20;85.20
75621;DHT22;64574;48.506;-2.750;2023-06-10T06:04:14;18.20;85.30
75621;DHT22;64574;48.506;-2.750;2023-06-10T06:06:40;18.20;85.40
75621;DHT22;64574;48.506;-2.750;2023-06-10T06:09:06;18.20;85.40
75621;DHT22;64574;48.506;-2.750;2023-06-10T06:11:33;18.30;85.40
75621;DHT22;64574;48.506;-2.750;2023-06-10T06:13:58;18.30;85.40
75621;DHT22;64574;48.506;-2.750;2023-06-10T06:16:24;18.30;85.50
75621;DHT22;64574;48.506;-2.750;2023-06-10T06:18:49;18.40;85.10
75621;DHT22;64574;48.506;-2.750;2023-06-10T06:21:15;18.40;84.40
75621;DHT22;64574;48.506;-2.750;2023-06-10T06:23:41;18.40;84.70
75621;DHT22;64574;48.506;-2.750;2023-06-10T06:26:06;18.50;84.70
75621;DHT22;64574;48.506;-2.750;2023-06-10T06:28:32;18.60;84.20
75621;DHT22;64574;48.506;-2.750;2023-06-10T06:30:57;18.60;83.80
75621;DHT22;64574;48.506;-2.750;2023-06-10T06:33:23;18.50;83.70
75621;DHT22;64574;48.506;-2.750;2023-06-10T06:35:48;18.50;84.10
75621;DHT22;64574;48.506;-2.750;2023-06-10T06:38:14;18.50;83.60
75621;DHT22;64574;48.506;-2.750;2023-06-10T06:40:40;18.40;84.10
75621;DHT22;64574;48.506;-2.750;2023-06-10T06:43:05;18.40;84.10
75621;DHT22;64574;48.506;-2.750;2023-06-10T06:45:31;18.40;84.50
75621;DHT22;64574;48.506;-2.750;2023-06-10T06:47:59;18.20;84.30
75621;DHT22;64574;48.506;-2.750;2023-06-10T06:50:25;18.30;84.50
75621;DHT22;64574;48.506;-2.750;2023-06-10T06:52:50;18.40;84.30
75621;DHT22;64574;48.506;-2.750;2023-06-10T06:55:16;18.40;84.00
75621;DHT22;64574;48.506;-2.750;2023-06-10T06:57:42;18.50;83.90
75621;DHT22;64574;48.506;-2.750;2023-06-10T07:00:08;18.60;83.20
75621;DHT22;64574;48.506;-2.750;2023-06-10T07:02:35;18.70;83.20
75621;DHT22;64574;48.506;-2.750;2023-06-10T07:05:01;18.70;83.20
75621;DHT22;64574;48.506;-2.750;2023-06-10T07:07:26;18.80;83.10
75621;DHT22;64574;48.506;-2.750;2023-06-10T07:09:52;18.80;83.10
75621;DHT22;64574;48.506;-2.750;2023-06-10T07:12:18;18.90;82.90
75621;DHT22;64574;48.506;-2.750;2023-06-10T07:14:44;18.80;82.50
75621;DHT22;64574;48.506;-2.750;2023-06-10T07:17:09;18.80;83.10
75621;DHT22;64574;48.506;-2.750;2023-06-10T07:19:35;18.80;83.00
75621;DHT22;64574;48.506;-2.750;2023-06-10T07:22:01;18.90;82.90
75621;DHT22;64574;48.506;-2.750;2023-06-10T07:24:26;19.00;82.60
75621;DHT22;64574;48.506;-2.750;2023-06-10T07:26:52;19.00;82.00
75621;DHT22;64574;48.506;-2.750;2023-06-10T07:29:18;19.00;81.50
75621;DHT22;64574;48.506;-2.750;2023-06-10T07:31:43;19.00;81.90
75621;DHT22;64574;48.506;-2.750;2023-06-10T07:34:09;19.10;82.30
75621;DHT22;64574;48.506;-2.750;2023-06-10T07:36:34;19.30;82.00
75621;DHT22;64574;48.506;-2.750;2023-06-10T07:39:00;19.70;80.40
75621;DHT22;64574;48.506;-2.750;2023-06-10T07:41:26;19.70;79.90
75621;DHT22;64574;48.506;-2.750;2023-06-10T07:43:53;19.70;79.50
75621;DHT22;64574;48.506;-2.750;2023-06-10T07:46:23;19.80;79.40
75621;DHT22;64574;48.506;-2.750;2023-06-10T07:48:49;19.90;79.10
75621;DHT22;64574;48.506;-2.750;2023-06-10T07:51:16;19.90;78.70
75621;DHT22;64574;48.506;-2.750;2023-06-10T07:53:42;19.80;79.10
75621;DHT22;64574;48.506;-2.750;2023-06-10T07:56:07;19.90;78.70
75621;DHT22;64574;48.506;-2.750;2023-06-10T07:58:33;19.70;79.20
75621;DHT22;64574;48.506;-2.750;2023-06-10T08:00:58;19.70;79.60
75621;DHT22;64574;48.506;-2.750;2023-06-10T08:03:24;19.70;80.40
75621;DHT22;64574;48.506;-2.750;2023-06-10T08:05:50;19.90;79.30
75621;DHT22;64574;48.506;-2.750;2023-06-10T08:08:15;19.80;79.00
75621;DHT22;64574;48.506;-2.750;2023-06-10T08:10:41;19.60;79.50
75621;DHT22;64574;48.506;-2.750;2023-06-10T08:13:08;19.80;79.60
75621;DHT22;64574;48.506;-2.750;2023-06-10T08:15:33;19.70;80.10
75621;DHT22;64574;48.506;-2.750;2023-06-10T08:17:59;19.70;79.70
75621;DHT22;64574;48.506;-2.750;2023-06-10T08:20:25;19.90;78.80
75621;DHT22;64574;48.506;-2.750;2023-06-10T08:22:50;19.80;79.00
75621;DHT22;64574;48.506;-2.750;2023-06-10T08:25:16;19.70;79.50
75621;DHT22;64574;48.506;-2.750;2023-06-10T08:27:42;20.00;79.30
75621;DHT22;64574;48.506;-2.750;2023-06-10T08:30:08;20.10;78.60
75621;DHT22;64574;48.506;-2.750;2023-06-10T08:32:36;20.00;78.90
75621;DHT22;64574;48.506;-2.750;2023-06-10T08:35:02;19.90;78.70
75621;DHT22;64574;48.506;-2.750;2023-06-10T08:37:28;20.00;79.00
75621;DHT22;64574;48.506;-2.750;2023-06-10T08:39:53;20.00;79.10
75621;DHT22;64574;48.506;-2.750;2023-06-10T08:45:18;20.30;78.10
75621;DHT22;64574;48.506;-2.750;2023-06-10T08:47:45;20.50;77.60
75621;DHT22;64574;48.506;-2.750;2023-06-10T08:50:12;20.50;76.50
75621;DHT22;64574;48.506;-2.750;2023-06-10T08:52:42;20.50;77.50
75621;DHT22;64574;48.506;-2.750;2023-06-10T08:55:15;20.60;77.00
75621;DHT22;64574;48.506;-2.750;2023-06-10T08:57:45;20.50;77.20
75621;DHT22;64574;48.506;-2.750;2023-06-10T09:00:13;20.50;77.40
75621;DHT22;64574;48.506;-2.750;2023-06-10T09:02:40;20.30;77.50
75621;DHT22;64574;48.506;-2.750;2023-06-10T09:05:07;20.50;77.30
75621;DHT22;64574;48.506;-2.750;2023-06-10T09:07:35;20.30;76.90
75621;DHT22;64574;48.506;-2.750;2023-06-10T09:10:03;20.30;77.90
75621;DHT22;64574;48.506;-2.750;2023-06-10T09:12:29;20.40;76.80
75621;DHT22;64574;48.506;-2.750;2023-06-10T09:14:55;20.20;77.20
75621;DHT22;64574;48.506;-2.750;2023-06-10T09:17:21;20.10;77.20
75621;DHT22;64574;48.506;-2.750;2023-06-10T09:19:47;20.30;77.00
75621;DHT22;64574;48.506;-2.750;2023-06-10T09:22:14;20.50;76.20
75621;DHT22;64574;48.506;-2.750;2023-06-10T09:24:40;20.70;75.30
75621;DHT22;64574;48.506;-2.750;2023-06-10T09:27:07;20.70;75.20
75621;DHT22;64574;48.506;-2.750;2023-06-10T09:29:53;20.70;75.40
75621;DHT22;64574;48.506;-2.750;2023-06-10T09:32:20;20.60;75.70
75621;DHT22;64574;48.506;-2.750;2023-06-10T09:34:46;20.50;75.70
75621;DHT22;64574;48.506;-2.750;2023-06-10T09:37:12;20.50;76.30
75621;DHT22;64574;48.506;-2.750;2023-06-10T09:39:39;20.30;77.20
75621;DHT22;64574;48.506;-2.750;2023-06-10T09:42:18;20.50;77.20
75621;DHT22;64574;48.506;-2.750;2023-06-10T09:44:51;20.60;76.10
75621;DHT22;64574;48.506;-2.750;2023-06-10T09:47:22;20.50;76.60
75621;DHT22;64574;48.506;-2.750;2023-06-10T09:49:48;20.30;76.80
75621;DHT22;64574;48.506;-2.750;2023-06-10T09:52:21;20.10;77.70
75621;DHT22;64574;48.506;-2.750;2023-06-10T09:54:47;20.10;77.80
75621;DHT22;64574;48.506;-2.750;2023-06-10T09:57:13;20.20;78.10
75621;DHT22;64574;48.506;-2.750;2023-06-10T09:59:41;20.30;77.90
75621;DHT22;64574;48.506;-2.750;2023-06-10T10:02:06;20.10;77.70
75621;DHT22;64574;48.506;-2.750;2023-06-10T10:04:35;20.00;78.00
75621;DHT22;64574;48.506;-2.750;2023-06-10T10:07:01;20.00;78.50
75621;DHT22;64574;48.506;-2.750;2023-06-10T10:09:26;20.00;78.40
75621;DHT22;64574;48.506;-2.750;2023-06-10T10:11:53;19.90;77.70
75621;DHT22;64574;48.506;-2.750;2023-06-10T10:14:20;19.50;78.20
75621;DHT22;64574;48.506;-2.750;2023-06-10T10:16:46;19.40;78.70
75621;DHT22;64574;48.506;-2.750;2023-06-10T10:19:23;19.30;79.10
75621;DHT22;64574;48.506;-2.750;2023-06-10T10:21:53;19.40;79.10
75621;DHT22;64574;48.506;-2.750;2023-06-10T10:24:26;19.50;78.70
75621;DHT22;64574;48.506;-2.750;2023-06-10T10:26:57;19.50;78.20
75621;DHT22;64574;48.506;-2.750;2023-06-10T10:29:51;19.50;77.90
75621;DHT22;64574;48.506;-2.750;2023-06-10T10:32:18;19.60;77.80
75621;DHT22;64574;48.506;-2.750;2023-06-10T10:35:18;19.50;77.70
75621;DHT22;64574;48.506;-2.750;2023-06-10T10:37:36;19.50;77.80
75621;DHT22;64574;48.506;-2.750;2023-06-10T10:40:03;19.30;78.20
75621;DHT22;64574;48.506;-2.750;2023-06-10T10:42:30;19.30;78.50
75621;DHT22;64574;48.506;-2.750;2023-06-10T10:44:56;19.30;78.20
75621;DHT22;64574;48.506;-2.750;2023-06-10T10:47:22;19.30;78.20
75621;DHT22;64574;48.506;-2.750;2023-06-10T10:49:51;19.30;78.50
75621;DHT22;64574;48.506;-2.750;2023-06-10T10:52:20;19.30;78.40
75621;DHT22;64574;48.506;-2.750;2023-06-10T10:54:46;19.40;78.30
75621;DHT22;64574;48.506;-2.750;2023-06-10T10:57:22;19.40;78.00
75621;DHT22;64574;48.506;-2.750;2023-06-10T11:05:04;19.40;78.50
75621;DHT22;64574;48.506;-2.750;2023-06-10T11:07:31;19.50;78.40
75621;DHT22;64574;48.506;-2.750;2023-06-10T11:10:11;19.50;78.30
75621;DHT22;64574;48.506;-2.750;2023-06-10T11:15:31;19.50;78.10
75621;DHT22;64574;48.506;-2.750;2023-06-10T11:18:14;19.60;78.00
75621;DHT22;64574;48.506;-2.750;2023-06-10T11:23:09;19.90;77.30
75621;DHT22;64574;48.506;-2.750;2023-06-10T11:25:41;19.80;77.00
75621;DHT22;64574;48.506;-2.750;2023-06-10T11:28:20;19.70;77.50
75621;DHT22;64574;48.506;-2.750;2023-06-10T11:30:46;19.70;77.50
75621;DHT22;64574;48.506;-2.750;2023-06-10T11:33:16;19.70;77.70
75621;DHT22;64574;48.506;-2.750;2023-06-10T11:35:43;19.70;77.50
75621;DHT22;64574;48.506;-2.750;2023-06-10T11:38:09;20.00;76.80
75621;DHT22;64574;48.506;-2.750;2023-06-10T11:40:38;20.20;76.10
75621;DHT22;64574;48.506;-2.750;2023-06-10T11:43:04;20.50;75.00
75621;DHT22;64574;48.506;-2.750;2023-06-10T11:45:30;20.40;75.00
75621;DHT22;64574;48.506;-2.750;2023-06-10T11:47:57;20.60;74.40
75621;DHT22;64574;48.506;-2.750;2023-06-10T11:50:33;20.90;73.90
75621;DHT22;64574;48.506;-2.750;2023-06-10T11:52:59;21.10;72.80
75621;DHT22;64574;48.506;-2.750;2023-06-10T11:55:46;21.00;72.60
75621;DHT22;64574;48.506;-2.750;2023-06-10T11:58:21;20.70;73.80
75621;DHT22;64574;48.506;-2.750;2023-06-10T12:00:48;20.40;74.50
75621;DHT22;64574;48.506;-2.750;2023-06-10T12:03:15;20.10;75.40
75621;DHT22;64574;48.506;-2.750;2023-06-10T12:06:00;20.00;76.40
75621;DHT22;64574;48.506;-2.750;2023-06-10T12:08:26;20.00;76.80
75621;DHT22;64574;48.506;-2.750;2023-06-10T12:10:53;19.90;77.20
75621;DHT22;64574;48.506;-2.750;2023-06-10T12:13:19;20.00;77.10
75621;DHT22;64574;48.506;-2.750;2023-06-10T12:15:45;20.00;77.00
75621;DHT22;64574;48.506;-2.750;2023-06-10T12:18:21;20.00;77.30
75621;DHT22;64574;48.506;-2.750;2023-06-10T12:20:47;20.00;77.20
75621;DHT22;64574;48.506;-2.750;2023-06-10T12:23:14;20.00;77.40
75621;DHT22;64574;48.506;-2.750;2023-06-10T12:25:53;19.90;77.50
75621;DHT22;64574;48.506;-2.750;2023-06-10T12:28:26;20.00;77.70
75621;DHT22;64574;48.506;-2.750;2023-06-10T12:31:06;20.00;77.50
75621;DHT22;64574;48.506;-2.750;2023-06-10T12:33:33;20.00;77.60
75621;DHT22;64574;48.506;-2.750;2023-06-10T12:35:58;20.10;77.50
75621;DHT22;64574;48.506;-2.750;2023-06-10T12:38:26;20.10;77.90
75621;DHT22;64574;48.506;-2.750;2023-06-10T12:41:00;20.10;77.80
75621;DHT22;64574;48.506;-2.750;2023-06-10T12:43:26;20.10;77.70
75621;DHT22;64574;48.506;-2.750;2023-06-10T12:45:52;20.10;77.20
75621;DHT22;64574;48.506;-2.750;2023-06-10T12:48:19;20.20;77.70
75621;DHT22;64574;48.506;-2.750;2023-06-10T12:50:50;20.20;77.20
75621;DHT22;64574;48.506;-2.750;2023-06-10T12:53:16;20.30;77.10
75621;DHT22;64574;48.506;-2.750;2023-06-10T12:55:42;20.30;77.10
75621;DHT22;64574;48.506;-2.750;2023-06-10T12:58:10;20.30;76.90
75621;DHT22;64574;48.506;-2.750;2023-06-10T13:00:36;20.30;77.10
75621;DHT22;64574;48.506;-2.750;2023-06-10T13:03:02;20.50;76.70
75621;DHT22;64574;48.506;-2.750;2023-06-10T13:05:29;20.50;76.10
75621;DHT22;64574;48.506;-2.750;2023-06-10T13:07:55;20.50;76.00
75621;DHT22;64574;48.506;-2.750;2023-06-10T13:10:21;20.50;75.40
75621;DHT22;64574;48.506;-2.750;2023-06-10T13:12:47;20.80;75.20
75621;DHT22;64574;48.506;-2.750;2023-06-10T13:15:13;20.80;74.30
75621;DHT22;64574;48.506;-2.750;2023-06-10T13:17:40;20.90;74.10
75621;DHT22;64574;48.506;-2.750;2023-06-10T13:20:06;21.00;73.30
75621;DHT22;64574;48.506;-2.750;2023-06-10T13:22:33;21.10;73.20
75621;DHT22;64574;48.506;-2.750;2023-06-10T13:25:03;21.10;73.00
75621;DHT22;64574;48.506;-2.750;2023-06-10T13:27:30;21.20;72.70
75621;DHT22;64574;48.506;-2.750;2023-06-10T13:29:56;21.50;72.00
75621;DHT22;64574;48.506;-2.750;2023-06-10T13:32:21;21.40;72.00
75621;DHT22;64574;48.506;-2.750;2023-06-10T13:34:47;21.40;71.80
75621;DHT22;64574;48.506;-2.750;2023-06-10T13:37:14;21.40;72.00
75621;DHT22;64574;48.506;-2.750;2023-06-10T13:39:41;21.70;71.40
75621;DHT22;64574;48.506;-2.750;2023-06-10T13:42:06;21.70;70.70
75621;DHT22;64574;48.506;-2.750;2023-06-10T13:44:33;21.90;70.50
75621;DHT22;64574;48.506;-2.750;2023-06-10T13:47:02;21.90;69.80
75621;DHT22;64574;48.506;-2.750;2023-06-10T13:49:28;21.90;69.90
75621;DHT22;64574;48.506;-2.750;2023-06-10T13:51:53;21.90;69.60
75621;DHT22;64574;48.506;-2.750;2023-06-10T13:54:19;22.00;70.10
75621;DHT22;64574;48.506;-2.750;2023-06-10T13:56:44;22.00;70.00
75621;DHT22;64574;48.506;-2.750;2023-06-10T13:59:10;21.90;70.10
75621;DHT22;64574;48.506;-2.750;2023-06-10T14:01:35;21.70;70.30
75621;DHT22;64574;48.506;-2.750;2023-06-10T14:04:01;21.70;70.60
75621;DHT22;64574;48.506;-2.750;2023-06-10T14:06:27;21.50;70.80
75621;DHT22;64574;48.506;-2.750;2023-06-10T14:08:53;21.40;70.90
75621;DHT22;64574;48.506;-2.750;2023-06-10T14:11:20;21.20;71.80
75621;DHT22;64574;48.506;-2.750;2023-06-10T14:13:46;21.40;71.70
75621;DHT22;64574;48.506;-2.750;2023-06-10T14:16:12;21.60;70.90
75621;DHT22;64574;48.506;-2.750;2023-06-10T14:18:37;21.60;70.80
75621;DHT22;64574;48.506;-2.750;2023-06-10T14:21:03;21.60;70.20
75621;DHT22;64574;48.506;-2.750;2023-06-10T14:23:29;21.70;70.60
75621;DHT22;64574;48.506;-2.750;2023-06-10T14:25:54;21.70;70.20
75621;DHT22;64574;48.506;-2.750;2023-06-10T14:28:20;21.70;70.20
75621;DHT22;64574;48.506;-2.750;2023-06-10T14:30:46;21.70;70.40
75621;DHT22;64574;48.506;-2.750;2023-06-10T14:33:11;21.50;70.10
75621;DHT22;64574;48.506;-2.750;2023-06-10T14:35:37;21.50;70.90
75621;DHT22;64574;48.506;-2.750;2023-06-10T14:38:03;21.50;70.60
75621;DHT22;64574;48.506;-2.750;2023-06-10T14:40:28;21.50;70.60
75621;DHT22;64574;48.506;-2.750;2023-06-10T14:42:57;21.70;70.90
75621;DHT22;64574;48.506;-2.750;2023-06-10T14:45:23;21.90;70.80
75621;DHT22;64574;48.506;-2.750;2023-06-10T14:47:50;21.90;70.30
75621;DHT22;64574;48.506;-2.750;2023-06-10T14:50:16;21.90;69.60
75621;DHT22;64574;48.506;-2.750;2023-06-10T14:52:42;21.70;70.50
75621;DHT22;64574;48.506;-2.750;2023-06-10T14:55:07;21.70;70.60
75621;DHT22;64574;48.506;-2.750;2023-06-10T14:57:33;21.90;70.40
75621;DHT22;64574;48.506;-2.750;2023-06-10T14:59:59;22.10;69.80
75621;DHT22;64574;48.506;-2.750;2023-06-10T15:02:24;22.00;69.80
75621;DHT22;64574;48.506;-2.750;2023-06-10T15:04:50;22.00;69.40
75621;DHT22;64574;48.506;-2.750;2023-06-10T15:07:16;21.90;70.00
75621;DHT22;64574;48.506;-2.750;2023-06-10T15:09:43;21.80;69.80
75621;DHT22;64574;48.506;-2.750;2023-06-10T15:12:09;21.80;70.00
75621;DHT22;64574;48.506;-2.750;2023-06-10T15:14:34;22.00;69.40
75621;DHT22;64574;48.506;-2.750;2023-06-10T15:17:00;22.10;68.80
75621;DHT22;64574;48.506;-2.750;2023-06-10T15:19:26;22.10;69.00
75621;DHT22;64574;48.506;-2.750;2023-06-10T15:21:52;22.10;68.60
75621;DHT22;64574;48.506;-2.750;2023-06-10T15:24:18;22.20;68.00
75621;DHT22;64574;48.506;-2.750;2023-06-10T15:26:44;22.30;68.40
75621;DHT22;64574;48.506;-2.750;2023-06-10T15:29:09;22.20;68.30
75621;DHT22;64574;48.506;-2.750;2023-06-10T15:31:35;22.10;68.50